Time;durP1;ratioP1;P1;durP2;ratioP2;P2;SDS_P1;SDS_P2;PMS_P1;PMS_P2;Temp;Humidity;BMP_temperature;BMP_pressure;BME280_temperature;BME280_humidity;BME280_pressure;Samples;Min_cycle;Max_cycle;Signal;HPM_P1;HPM_P2
2021/07/27 00:01:44;;;;;;;16.50;8.32;;;;;;;22.66;54.07;95365.22;4957534;29;20031;-79
2021/07/27 00:04:10;;;;;;;15.63;8.30;;;;;;;22.61;53.51;95359.97;4956911;29;20059;-79
2021/07/27 00:06:35;;;;;;;18.15;8.05;;;;;;;22.56;54.08;95362.75;4957461;29;20043;-79
2021/07/27 00:09:00;;;;;;;13.82;7.70;;;;;;;22.51;54.43;95356.75;4940276;29;20083;-79
2021/07/27 00:11:26;;;;;;;13.20;7.95;;;;;;;22.50;54.28;95357.84;4922645;29;20495;-79
2021/07/27 00:13:51;;;;;;;17.63;7.63;;;;;;;22.49;54.19;95364.22;4956058;29;20035;-79
2021/07/27 00:16:17;;;;;;;10.98;8.43;;;;;;;22.47;54.10;95369.81;4955525;28;20094;-79
2021/07/27 00:18:42;;;;;;;14.23;8.95;;;;;;;22.44;53.93;95370.38;4962135;29;20063;-79
2021/07/27 00:21:08;;;;;;;17.27;8.38;;;;;;;22.41;53.94;95365.66;4957430;29;20065;-79
2021/07/27 00:23:45;;;;;;;15.02;7.43;;;;;;;22.40;54.07;95364.09;4940145;29;20039;-79
2021/07/27 00:26:13;;;;;;;15.43;8.27;;;;;;;22.38;54.37;95374.22;4957384;29;20023;-80
2021/07/27 00:28:38;;;;;;;17.42;8.50;;;;;;;22.39;54.18;95367.81;4961785;23;20043;-79
2021/07/27 00:31:03;;;;;;;15.25;8.10;;;;;;;22.39;54.31;95367.81;4957143;29;20031;-79
2021/07/27 00:33:29;;;;;;;11.70;7.80;;;;;;;22.37;54.24;95372.63;4957646;28;20028;-79
2021/07/27 00:36:00;;;;;;;31.20;9.18;;;;;;;22.33;54.33;95369.00;4941118;29;20027;-79
2021/07/27 00:38:25;;;;;;;13.95;7.63;;;;;;;22.32;54.57;95372.72;4925925;29;20035;-79
2021/07/27 00:40:50;;;;;;;11.85;8.95;;;;;;;22.29;54.62;95371.47;4960767;28;20035;-79
2021/07/27 00:43:21;;;;;;;16.38;8.45;;;;;;;22.28;54.84;95366.44;4943618;29;20431;-79
2021/07/27 00:45:53;;;;;;;13.77;8.45;;;;;;;22.28;54.89;95366.44;4957507;29;20396;-78
2021/07/27 00:48:18;;;;;;;18.85;8.88;;;;;;;22.25;54.93;95372.31;4961765;29;20031;-79
2021/07/27 00:50:47;;;;;;;18.35;8.18;;;;;;;22.23;54.91;95361.22;4960618;29;20042;-79
2021/07/27 00:53:15;;;;;;;14.98;8.65;;;;;;;22.20;55.37;95362.59;4959669;29;20034;-79
2021/07/27 00:55:41;;;;;;;12.55;8.63;;;;;;;22.16;55.28;95365.06;4959636;29;20118;-79
2021/07/27 00:58:06;;;;;;;16.60;8.35;;;;;;;22.17;55.22;95369.28;4960700;29;20566;-79
2021/07/27 01:00:32;;;;;;;14.20;9.05;;;;;;;22.14;55.30;95369.06;4942467;29;20043;-79
2021/07/27 01:02:57;;;;;;;22.50;9.60;;;;;;;22.08;55.53;95371.00;4943723;29;20038;-79
2021/07/27 01:05:24;;;;;;;17.00;9.05;;;;;;;22.08;55.62;95378.94;4959245;29;20529;-79
2021/07/27 01:07:50;;;;;;;14.27;8.57;;;;;;;22.05;55.58;95376.88;4960094;28;20053;-78
2021/07/27 01:10:18;;;;;;;14.13;7.68;;;;;;;22.03;55.67;95380.88;4958943;29;20019;-79
2021/07/27 01:12:47;;;;;;;17.60;8.45;;;;;;;22.00;55.78;95381.47;4959980;29;20091;-79
2021/07/27 01:15:12;;;;;;;14.60;8.88;;;;;;;21.99;55.92;95375.38;4957600;29;20070;-79
2021/07/27 01:17:38;;;;;;;11.63;8.32;;;;;;;21.97;55.73;95382.81;4959805;28;20035;-79
2021/07/27 01:39:19;;;;;;;13.07;8.07;;;;;;;21.67;56.65;95378.00;4959831;29;20482;-79
2021/07/27 01:44:28;;;;;;;14.20;8.07;;;;;;;21.58;56.55;95373.34;4959021;29;20521;-79
2021/07/27 01:47:00;;;;;;;12.07;7.68;;;;;;;21.60;56.54;95372.25;4957818;28;20043;-79
2021/07/27 01:49:25;;;;;;;10.55;8.23;;;;;;;21.57;56.49;95369.13;5000628;23;20118;-78
2021/07/27 01:51:53;;;;;;;15.52;8.73;;;;;;;21.54;56.78;95366.28;4957129;29;20042;-78
2021/07/27 01:54:28;;;;;;;13.35;8.13;;;;;;;21.51;56.75;95367.63;4959399;28;20122;-79
2021/07/27 01:56:53;;;;;;;20.60;8.48;;;;;;;21.50;56.97;95371.34;4927331;29;20035;-78
2021/07/27 01:59:19;;;;;;;10.27;7.90;;;;;;;21.49;56.85;95369.78;4937207;29;20415;-78
2021/07/27 02:01:44;;;;;;;14.18;8.15;;;;;;;21.46;57.07;95367.69;4954916;29;20040;-78
2021/07/27 02:04:09;;;;;;;20.60;8.75;;;;;;;21.44;57.17;95375.13;4955568;29;20034;-78
2021/07/27 02:06:41;;;;;;;18.02;8.43;;;;;;;21.42;57.52;95382.56;4954961;29;20046;-78
2021/07/27 02:09:07;;;;;;;31.23;8.82;;;;;;;21.39;57.09;95383.16;4937718;29;20070;-80
2021/07/27 02:11:41;;;;;;;17.00;8.88;;;;;;;21.40;57.23;95384.72;4953371;28;20031;-77
2021/07/27 02:14:07;;;;;;;19.60;8.85;;;;;;;21.39;57.37;95383.16;4951687;29;20038;-77
2021/07/27 02:16:36;;;;;;;21.35;8.07;;;;;;;21.36;57.36;95386.38;4957240;29;20411;-79
2021/07/27 02:19:01;;;;;;;21.75;8.93;;;;;;;21.34;57.36;95385.88;4963061;29;20456;-78
2021/07/27 02:21:27;;;;;;;19.20;8.80;;;;;;;21.35;57.31;95387.44;4965077;23;20057;-79
2021/07/27 02:23:52;;;;;;;15.05;8.23;;;;;;;21.35;57.32;95384.78;4959266;29;20030;-79
2021/07/27 02:26:17;;;;;;;18.92;9.20;;;;;;;21.32;57.27;95377.44;4954119;29;20032;-79
2021/07/27 02:28:43;;;;;;;17.25;9.07;;;;;;;21.30;57.27;95389.34;4959684;29;20035;-79
2021/07/27 02:31:14;;;;;;;23.52;10.35;;;;;;;21.29;57.31;95372.69;4959572;29;20031;-79
2021/07/27 02:33:39;;;;;;;17.42;9.57;;;;;;;21.28;57.29;95384.34;4911957;29;20062;-79
2021/07/27 02:36:08;;;;;;;26.23;9.18;;;;;;;21.27;57.58;95374.84;4941241;29;20031;-79
2021/07/27 02:38:36;;;;;;;20.23;9.27;;;;;;;21.25;57.80;95374.34;4959365;29;20113;-79
2021/07/27 02:41:02;;;;;;;22.48;9.55;;;;;;;21.23;57.81;95379.09;4973401;23;20107;-78
2021/07/27 02:43:30;;;;;;;24.10;9.80;;;;;;;21.20;57.64;95374.38;4959486;29;20043;-79
2021/07/27 02:45:59;;;;;;;18.02;9.75;;;;;;;21.19;57.82;95378.88;5026206;23;20061;-77
2021/07/27 02:48:24;;;;;;;23.33;9.50;;;;;;;21.13;58.06;95377.34;4971103;29;20252;-78
2021/07/27 02:51:00;;;;;;;19.52;9.00;;;;;;;21.13;58.14;95379.22;4954473;29;20043;-79
2021/07/27 02:53:29;;;;;;;17.95;10.00;;;;;;;21.07;58.33;95383.00;4939326;29;20038;-79
2021/07/27 02:55:56;;;;;;;17.85;8.80;;;;;;;21.05;58.19;95387.78;4959049;29;20039;-79
2021/07/27 02:58:22;;;;;;;20.30;9.55;;;;;;;21.04;58.24;95389.66;4955177;28;20198;-78
2021/07/27 03:00:47;;;;;;;22.98;9.30;;;;;;;21.04;58.46;95387.00;4958669;28;20039;-78
2021/07/27 03:03:13;;;;;;;21.55;9.00;;;;;;;21.04;58.33;95394.16;4957320;29;20043;-79
2021/07/27 03:05:38;;;;;;;20.88;9.25;;;;;;;21.02;58.43;95391.00;4971863;23;20031;-79
2021/07/27 03:08:10;;;;;;;30.30;10.05;;;;;;;20.99;58.56;95392.38;4961802;23;20047;-79
2021/07/27 03:10:35;;;;;;;20.53;9.57;;;;;;;20.97;58.47;95392.63;4958186;29;20039;-79
2021/07/27 03:13:00;;;;;;;21.83;9.63;;;;;;;21.00;58.33;95395.81;4956745;29;20119;-78
2021/07/27 03:15:26;;;;;;;21.08;8.68;;;;;;;21.00;58.39;95393.16;4958219;28;20023;-79
2021/07/27 03:17:57;;;;;;;23.85;9.82;;;;;;;20.98;58.49;95399.50;4963446;23;20602;-79
2021/07/27 03:23:03;;;;;;;23.15;9.55;;;;;;;21.02;58.35;95404.22;4972007;23;20047;-78
2021/07/27 03:25:28;;;;;;;38.53;10.50;;;;;;;21.07;58.42;95396.22;4958374;29;20027;-79
2021/07/27 03:27:53;;;;;;;42.03;18.45;;;;;;;21.11;58.42;95399.88;4936141;29;20562;-79
2021/07/27 03:30:20;;;;;;;31.08;15.40;;;;;;;21.16;58.16;95395.31;4958082;28;20035;-79
2021/07/27 03:32:51;;;;;;;45.95;18.23;;;;;;;21.22;58.06;95399.47;4937816;29;20507;-78
2021/07/27 03:35:20;;;;;;;44.08;13.10;;;;;;;21.29;57.83;95404.44;4958143;28;20023;-78
2021/07/27 03:37:45;;;;;;;31.30;10.68;;;;;;;21.36;57.60;95404.09;4955908;29;20058;-79
2021/07/27 03:40:12;;;;;;;25.92;10.52;;;;;;;21.43;57.45;95409.81;4983847;23;20519;-78
2021/07/27 03:42:37;;;;;;;19.30;10.10;;;;;;;21.52;57.10;95406.25;4954668;29;20033;-78
2021/07/27 03:45:03;;;;;;;28.63;10.18;;;;;;;21.63;56.39;95408.72;4937289;29;20031;-78
2021/07/27 03:47:28;;;;;;;23.73;9.50;;;;;;;21.74;56.44;95415.47;4936268;29;20046;-78
2021/07/27 03:49:54;;;;;;;20.27;9.85;;;;;;;21.85;55.87;95401.81;4953544;29;20036;-77
2021/07/27 03:52:19;;;;;;;49.55;9.93;;;;;;;22.01;55.83;95412.94;4952814;29;20038;-78
2021/07/27 03:54:44;;;;;;;28.30;10.40;;;;;;;22.14;55.11;95408.81;4954020;29;20046;-78
2021/07/27 03:57:10;;;;;;;26.50;10.68;;;;;;;22.26;54.56;95409.09;4954985;29;20031;-78
2021/07/27 03:59:35;;;;;;;43.38;11.00;;;;;;;22.41;54.74;95414.16;4958614;29;20031;-78
2021/07/27 04:02:07;;;;;;;20.83;10.05;;;;;;;22.61;54.06;95407.69;4957741;29;20031;-77
2021/07/27 04:04:35;;;;;;;30.00;10.43;;;;;;;22.77;53.89;95410.84;4971582;23;20222;-78
2021/07/27 04:07:00;;;;;;;33.20;11.20;;;;;;;22.95;53.26;95418.00;4953376;29;20046;-78
2021/07/27 04:09:29;;;;;;;41.40;10.75;;;;;;;23.13;52.80;95418.19;4953773;29;20027;-78
2021/07/27 04:11:54;;;;;;;40.08;10.45;;;;;;;23.45;52.25;95419.91;4934604;29;20059;-78
2021/07/27 04:14:20;;;;;;;53.80;11.75;;;;;;;24.15;50.32;95417.53;4953649;29;20094;-78
2021/07/27 04:16:45;;;;;;;35.30;10.18;;;;;;;25.06;47.97;95419.00;4951597;29;20035;-78
2021/07/27 04:19:11;;;;;;;39.80;9.80;;;;;;;25.94;46.02;95416.16;4956682;29;20042;-78
2021/07/27 04:21:36;;;;;;;41.63;9.10;;;;;;;26.80;43.77;95416.00;4956737;29;20097;-78
2021/07/27 04:24:02;;;;;;;25.23;9.90;;;;;;;27.61;41.96;95422.19;4936395;29;20042;-79
2021/07/27 04:26:27;;;;;;;58.58;10.40;;;;;;;28.30;40.53;95422.47;4956352;29;20047;-78
2021/07/27 04:28:53;;;;;;;57.08;11.45;;;;;;;29.01;38.25;95417.94;4938734;29;20030;-78
2021/07/27 04:31:18;;;;;;;39.80;9.68;;;;;;;29.77;37.21;95414.53;4955728;29;20427;-78
2021/07/27 04:33:50;;;;;;;42.83;10.52;;;;;;;30.58;35.87;95417.91;4922954;29;20027;-78
2021/07/27 04:36:15;;;;;;;27.95;7.72;;;;;;;31.35;34.33;95418.28;4955469;29;20043;-78
2021/07/27 04:38:47;;;;;;;37.22;8.82;;;;;;;32.15;32.71;95412.31;4939062;29;20042;-79
2021/07/27 04:41:12;;;;;;;32.63;8.20;;;;;;;32.90;31.34;95415.66;4956925;28;20046;-78
2021/07/27 04:43:38;;;;;;;36.08;9.45;;;;;;;33.65;29.71;95399.44;4956427;29;20032;-78
2021/07/27 04:46:05;;;;;;;29.15;8.70;;;;;;;34.34;28.66;95401.84;4956131;29;20031;-78
2021/07/27 04:48:30;;;;;;;38.67;8.65;;;;;;;34.94;27.25;95398.97;4957515;29;20050;-78
2021/07/27 04:50:56;;;;;;;47.00;9.90;;;;;;;35.69;26.24;95402.97;4938518;29;20031;-78
2021/07/27 04:53:23;;;;;;;21.80;7.65;;;;;;;36.33;23.99;95395.16;4939159;29;20541;-78
2021/07/27 04:55:49;;;;;;;18.08;6.80;;;;;;;36.88;23.75;95403.00;4955086;29;20066;-78
2021/07/27 04:58:15;;;;;;;20.00;7.13;;;;;;;37.49;23.43;95411.91;4956368;29;20031;-78
2021/07/27 05:00:40;;;;;;;13.02;6.07;;;;;;;38.02;21.94;95410.97;4956133;29;20033;-78
2021/07/27 05:03:05;;;;;;;20.65;7.70;;;;;;;38.65;21.94;95414.59;4957122;29;20125;-78
2021/07/27 05:05:31;;;;;;;26.92;9.43;;;;;;;39.30;21.33;95421.09;4956461;29;20154;-79
2021/07/27 05:07:58;;;;;;;58.72;13.82;;;;;;;39.90;20.15;95413.53;4957321;29;20035;-79
2021/07/27 05:10:26;;;;;;;22.02;6.68;;;;;;;40.61;19.29;95415.38;4955904;29;20023;-78
2021/07/27 05:12:52;;;;;;;12.60;7.05;;;;;;;41.04;18.42;95412.00;4957203;29;20038;-78
2021/07/27 05:15:17;;;;;;;16.63;6.18;;;;;;;41.45;18.22;95419.13;4955813;29;20031;-78
2021/07/27 05:17:51;;;;;;;17.92;5.75;;;;;;;42.00;17.35;95425.94;4961521;23;20062;-79
2021/07/27 05:20:16;;;;;;;15.52;6.57;;;;;;;42.55;16.93;95427.94;5054829;23;20070;-77
2021/07/27 05:22:41;;;;;;;13.95;6.45;;;;;;;43.05;16.66;95426.81;4958878;28;20035;-79
2021/07/27 05:25:07;;;;;;;18.50;5.85;;;;;;;43.54;16.30;95424.03;4957889;28;20035;-79
2021/07/27 05:27:34;;;;;;;19.50;5.68;;;;;;;44.10;16.06;95421.00;4959843;29;20046;-79
2021/07/27 05:29:59;;;;;;;13.60;5.82;;;;;;;44.58;15.57;95423.50;4959913;29;20035;-79
2021/07/27 05:32:50;;;;;;;18.95;5.63;;;;;;;45.19;14.54;95430.59;4924390;29;20042;-79
2021/07/27 05:35:15;;;;;;;17.85;5.55;;;;;;;45.74;14.03;95425.66;4960062;29;20042;-79
2021/07/27 05:37:41;;;;;;;10.80;5.20;;;;;;;46.06;13.59;95421.03;4960308;29;20027;-79
2021/07/27 05:40:15;;;;;;;12.93;5.22;;;;;;;46.64;13.80;95436.94;4942366;29;20038;-79
2021/07/27 05:42:41;;;;;;;15.55;5.70;;;;;;;47.19;13.16;95429.66;4958582;29;20035;-79
2021/07/27 05:45:10;;;;;;;12.75;4.70;;;;;;;47.40;12.85;95436.25;4959628;29;20156;-78
2021/07/27 05:47:35;;;;;;;6.85;5.03;;;;;;;47.41;12.62;95426.78;4963919;23;20043;-79
2021/07/27 05:50:01;;;;;;;14.20;5.38;;;;;;;47.65;12.29;95423.44;4960073;29;20038;-79
2021/07/27 05:52:26;;;;;;;18.48;5.75;;;;;;;47.68;12.00;95428.03;4946770;23;20028;-80
2021/07/27 05:54:55;;;;;;;13.38;5.00;;;;;;;48.02;11.93;95430.50;4958188;29;20031;-79
2021/07/27 05:57:20;;;;;;;20.60;5.38;;;;;;;48.35;11.79;95429.84;4958938;29;20035;-80
2021/07/27 05:59:46;;;;;;;15.27;5.05;;;;;;;48.77;11.93;95427.06;4978653;23;20051;-80
2021/07/27 06:02:21;;;;;;;18.55;5.38;;;;;;;49.17;11.58;95432.28;4959998;29;20038;-79
2021/07/27 06:04:46;;;;;;;14.30;4.72;;;;;;;49.47;11.57;95437.91;4943565;29;20027;-80
2021/07/27 06:07:12;;;;;;;13.68;4.97;;;;;;;49.56;10.72;95435.84;4907796;29;20075;-80
2021/07/27 06:09:37;;;;;;;14.65;5.43;;;;;;;49.55;11.02;95437.09;4958858;29;20038;-80
2021/07/27 06:12:03;;;;;;;11.02;4.72;;;;;;;49.81;10.49;95439.38;4958481;29;20043;-79
2021/07/27 06:14:29;;;;;;;14.65;5.25;;;;;;;49.99;10.56;95432.91;4956566;29;20494;-80
2021/07/27 06:16:54;;;;;;;13.93;5.10;;;;;;;50.28;10.21;95424.63;4958975;29;20040;-78
2021/07/27 06:19:20;;;;;;;36.50;5.50;;;;;;;50.49;9.70;95431.03;4960349;29;20043;-79
2021/07/27 06:21:45;;;;;;;13.70;4.97;;;;;;;50.59;9.70;95423.38;4958659;29;20031;-79
2021/07/27 06:24:11;;;;;;;12.65;4.60;;;;;;;50.41;10.11;95421.59;4959056;29;20027;-79
2021/07/27 06:26:36;;;;;;;18.65;5.07;;;;;;;50.56;9.62;95424.34;4959452;29;20068;-78
2021/07/27 06:29:03;;;;;;;13.75;4.93;;;;;;;50.12;10.51;95414.03;4971236;23;20135;-80
2021/07/27 06:31:29;;;;;;;15.77;5.05;;;;;;;50.15;9.98;95424.16;4958814;29;20066;-79
2021/07/27 06:33:54;;;;;;;12.57;5.13;;;;;;;49.42;11.03;95410.94;4958495;28;20031;-79
2021/07/27 06:36:20;;;;;;;16.23;5.05;;;;;;;49.31;10.36;95407.94;4957946;29;20035;-79
2021/07/27 06:38:45;;;;;;;20.05;4.90;;;;;;;49.34;10.89;95407.00;4985822;23;20046;-81
2021/07/27 06:41:11;;;;;;;12.98;4.85;;;;;;;49.32;10.26;95403.97;4969423;23;20050;-79
2021/07/27 06:43:37;;;;;;;12.13;4.90;;;;;;;48.34;10.97;95409.75;4959259;29;20448;-78
2021/07/27 06:46:02;;;;;;;15.10;5.28;;;;;;;48.25;11.36;95406.25;5005494;23;20059;-78
2021/07/27 06:48:28;;;;;;;13.23;5.32;;;;;;;47.58;11.55;95405.22;4963485;29;20039;-78
2021/07/27 06:50:54;;;;;;;14.18;5.60;;;;;;;47.33;12.16;95408.25;4957510;23;20031;-79
2021/07/27 06:53:19;;;;;;;14.77;5.10;;;;;;;46.73;12.79;95412.19;4960118;29;20491;-80
2021/07/27 06:55:45;;;;;;;9.93;5.13;;;;;;;46.29;12.27;95412.28;4935584;29;20031;-80
2021/07/27 06:58:10;;;;;;;22.67;5.78;;;;;;;45.28;13.75;95408.00;4957289;29;20103;-79
2021/07/27 07:00:39;;;;;;;15.60;5.43;;;;;;;44.39;14.65;95405.25;4955786;29;20043;-79
2021/07/27 07:03:04;;;;;;;13.80;5.03;;;;;;;44.23;14.14;95400.63;4958432;29;20522;-79
2021/07/27 07:05:30;;;;;;;13.63;5.50;;;;;;;43.52;14.93;95399.84;4957169;29;20031;-79
2021/07/27 07:07:55;;;;;;;22.05;5.55;;;;;;;43.21;15.50;95396.69;4979615;23;20040;-79
2021/07/27 07:10:20;;;;;;;15.70;5.50;;;;;;;43.06;15.51;95395.50;4956498;29;20031;-79
2021/07/27 07:12:46;;;;;;;25.55;5.68;;;;;;;42.82;15.85;95397.66;4953971;29;20031;-80
2021/07/27 07:15:12;;;;;;;10.38;4.65;;;;;;;42.21;15.95;95392.72;4959633;29;20046;-78
2021/07/27 07:17:37;;;;;;;24.27;5.55;;;;;;;41.75;16.16;95399.09;4958321;29;20033;-79
2021/07/27 07:20:03;;;;;;;13.55;5.22;;;;;;;41.25;16.12;95400.00;4958437;29;20039;-79
2021/07/27 07:22:29;;;;;;;13.52;5.88;;;;;;;40.76;17.37;95389.41;4956705;29;20031;-79
2021/07/27 07:24:55;;;;;;;16.92;5.18;;;;;;;40.55;17.26;95383.53;4954952;29;20031;-79
2021/07/27 07:27:23;;;;;;;11.60;5.45;;;;;;;40.38;17.23;95382.56;4951903;29;20038;-79
2021/07/27 07:29:52;;;;;;;17.50;6.22;;;;;;;40.14;17.54;95392.63;4946417;23;20047;-79
2021/07/27 07:32:17;;;;;;;13.38;5.68;;;;;;;40.01;17.88;95383.44;4956689;29;20031;-79
2021/07/27 07:34:43;;;;;;;20.83;5.68;;;;;;;39.83;18.09;95381.69;4960864;23;20494;-79
2021/07/27 07:37:08;;;;;;;21.15;5.65;;;;;;;39.68;17.89;95390.41;4971026;23;20039;-79
2021/07/27 07:39:37;;;;;;;16.23;6.28;;;;;;;39.67;18.52;95389.66;4957904;29;20055;-79
2021/07/27 07:42:05;;;;;;;12.43;5.53;;;;;;;39.50;18.58;95390.59;4958275;29;20031;-79
2021/07/27 07:44:31;;;;;;;21.80;5.18;;;;;;;39.34;18.49;95391.13;4957521;28;20419;-79
2021/07/27 07:46:57;;;;;;;13.13;5.75;;;;;;;39.19;18.96;95392.44;4940028;29;20098;-79
2021/07/27 07:49:22;;;;;;;27.60;5.97;;;;;;;38.92;18.81;95395.75;4940729;29;20038;-79
2021/07/27 07:51:50;;;;;;;17.52;6.35;;;;;;;38.78;19.31;95401.31;4941407;29;20023;-79
2021/07/27 07:54:15;;;;;;;20.42;6.57;;;;;;;38.39;19.03;95396.06;4956162;28;20537;-79
2021/07/27 07:56:44;;;;;;;23.33;7.55;;;;;;;37.98;20.07;95391.22;4961765;23;20050;-79
2021/07/27 07:59:10;;;;;;;23.08;6.15;;;;;;;37.81;20.05;95386.63;4938353;29;20031;-79
2021/07/27 08:01:35;;;;;;;16.45;6.18;;;;;;;37.71;20.42;95390.91;4938304;29;20042;-79
2021/07/27 08:04:01;;;;;;;26.05;6.75;;;;;;;37.69;20.61;95397.88;4920712;29;20027;-79
2021/07/27 08:06:27;;;;;;;23.05;7.10;;;;;;;37.58;21.22;95391.72;4944386;29;20083;-81
2021/07/27 08:08:52;;;;;;;11.23;6.38;;;;;;;37.39;20.61;95384.78;4925022;29;20031;-77
2021/07/27 08:11:17;;;;;;;27.08;6.88;;;;;;;37.27;21.10;95394.13;4940717;29;20027;-79
2021/07/27 08:13:43;;;;;;;12.38;6.60;;;;;;;37.33;21.16;95403.41;4938519;29;20484;-79
2021/07/27 08:16:09;;;;;;;12.27;6.03;;;;;;;37.40;21.88;95395.25;4905108;29;20054;-80
2021/07/27 08:18:38;;;;;;;28.63;6.45;;;;;;;37.43;21.37;95401.84;4921611;29;20032;-80
2021/07/27 08:21:03;;;;;;;25.42;6.47;;;;;;;37.35;21.22;95401.06;4939235;29;20026;-80
2021/07/27 08:23:29;;;;;;;20.08;7.03;;;;;;;37.41;21.10;95385.94;4938949;29;20040;-80
2021/07/27 08:25:54;;;;;;;29.08;7.43;;;;;;;37.30;20.94;95398.00;4917236;29;20099;-80
2021/07/27 08:28:20;;;;;;;17.63;6.65;;;;;;;37.17;21.52;95397.56;4937437;29;20031;-79
2021/07/27 08:30:45;;;;;;;14.80;7.50;;;;;;;36.73;21.67;95392.50;4950992;23;20143;-79
2021/07/27 08:33:11;;;;;;;23.13;7.82;;;;;;;36.56;21.93;95391.34;4939603;29;20035;-80
2021/07/27 08:35:36;;;;;;;21.63;7.55;;;;;;;36.37;22.63;95387.81;4957717;29;20050;-79
2021/07/27 08:38:02;;;;;;;31.50;7.88;;;;;;;36.38;22.69;95385.88;4924354;29;20491;-80
2021/07/27 08:40:28;;;;;;;21.35;7.30;;;;;;;36.42;22.62;95394.78;4937587;29;20565;-79
2021/07/27 08:42:54;;;;;;;17.48;6.97;;;;;;;36.49;22.98;95383.97;4957856;29;20031;-78
2021/07/27 08:45:19;;;;;;;22.52;7.07;;;;;;;36.47;22.47;95380.09;4957454;29;20060;-80
2021/07/27 08:47:47;;;;;;;21.92;7.95;;;;;;;36.41;22.48;95376.22;4922116;29;20314;-81
2021/07/27 08:50:12;;;;;;;34.35;7.22;;;;;;;36.44;23.11;95380.84;4956748;29;20542;-79
2021/07/27 08:52:38;;;;;;;23.17;7.65;;;;;;;36.29;22.67;95378.09;4940513;29;20039;-79
2021/07/27 08:55:05;;;;;;;26.35;7.57;;;;;;;35.94;23.75;95377.97;4938897;29;20023;-79
2021/07/27 08:57:31;;;;;;;22.17;8.20;;;;;;;35.94;23.27;95369.84;4958489;28;20034;-79
2021/07/27 08:59:56;;;;;;;16.42;8.00;;;;;;;35.79;23.57;95372.47;4960653;29;20027;-78
2021/07/27 09:02:29;;;;;;;23.80;7.82;;;;;;;35.77;24.00;95358.56;4941321;29;20066;-79
2021/07/27 09:05:10;;;;;;;21.02;7.40;;;;;;;35.75;24.51;95358.16;4960238;29;20039;-79
2021/07/27 09:07:36;;;;;;;29.67;7.70;;;;;;;35.77;23.64;95371.31;4974582;23;20051;-79
2021/07/27 09:10:14;;;;;;;15.77;8.27;;;;;;;35.73;24.09;95371.31;4963295;29;20060;-80
2021/07/27 09:12:54;;;;;;;16.02;7.28;;;;;;;35.73;24.47;95360.47;4965790;23;20129;-81
2021/07/27 09:15:21;;;;;;;19.65;7.93;;;;;;;35.73;23.78;95363.19;4962964;28;20039;-80
2021/07/27 09:17:54;;;;;;;27.88;8.80;;;;;;;35.64;23.76;95368.19;4940957;29;20036;-80
2021/07/27 09:20:35;;;;;;;26.98;8.13;;;;;;;35.61;24.02;95362.72;4944557;29;20047;-80
2021/07/27 09:23:02;;;;;;;31.77;8.80;;;;;;;35.60;23.90;95351.13;4944463;29;20114;-80
2021/07/27 09:25:29;;;;;;;22.85;7.90;;;;;;;35.55;24.73;95354.22;4927299;29;20042;-80
2021/07/27 09:28:08;;;;;;;21.27;7.68;;;;;;;35.48;24.71;95354.19;4940425;29;20176;-82
2021/07/27 09:30:34;;;;;;;26.67;8.52;;;;;;;35.31;24.84;95352.09;4929269;23;20040;-80
2021/07/27 09:32:59;;;;;;;27.17;8.27;;;;;;;35.18;25.27;95352.44;4958128;29;20075;-81
2021/07/27 09:35:27;;;;;;;24.27;8.27;;;;;;;34.86;25.49;95351.44;4957606;29;20035;-80
2021/07/27 09:38:05;;;;;;;28.10;7.90;;;;;;;34.83;25.98;95346.75;4940034;29;20039;-80
2021/07/27 09:40:31;;;;;;;30.65;8.43;;;;;;;34.80;25.59;95344.78;4936955;29;20099;-80
2021/07/27 09:42:56;;;;;;;28.42;8.15;;;;;;;34.79;26.81;95344.00;4939475;29;20035;-80
2021/07/27 09:45:24;;;;;;;30.38;9.05;;;;;;;34.89;26.41;95342.56;4938496;29;20062;-81
2021/07/27 09:47:49;;;;;;;16.98;8.07;;;;;;;34.93;25.70;95345.31;4923912;29;20031;-80
2021/07/27 09:50:15;;;;;;;16.63;7.65;;;;;;;34.89;26.15;95345.28;4938526;29;20506;-80
2021/07/27 09:52:41;;;;;;;20.60;8.25;;;;;;;34.69;25.80;95352.06;4940046;29;20027;-80
2021/07/27 09:55:07;;;;;;;15.93;8.95;;;;;;;34.49;25.96;95348.75;4940277;29;20032;-80
2021/07/27 09:57:33;;;;;;;22.98;8.40;;;;;;;34.54;26.41;95346.53;4923522;29;20039;-80
2021/07/27 09:59:59;;;;;;;24.23;8.43;;;;;;;34.49;25.89;95338.75;4923624;29;20035;-80
2021/07/27 10:02:25;;;;;;;16.15;8.05;;;;;;;34.44;26.35;95339.09;4923473;29;20064;-80
2021/07/27 10:04:51;;;;;;;18.45;8.88;;;;;;;34.43;25.99;95336.75;4921345;29;20087;-78
2021/07/27 10:07:18;;;;;;;20.95;8.90;;;;;;;34.43;26.44;95331.38;4911555;29;20039;-80
2021/07/27 10:09:44;;;;;;;26.42;8.80;;;;;;;34.46;26.56;95325.97;4923169;29;20024;-80
2021/07/27 10:12:12;;;;;;;31.00;8.80;;;;;;;34.50;26.63;95326.81;4924616;29;20086;-80
2021/07/27 10:14:39;;;;;;;18.45;8.30;;;;;;;34.58;26.91;95328.41;4907030;29;20024;-80
2021/07/27 10:17:13;;;;;;;26.17;8.32;;;;;;;34.54;26.88;95335.72;4940703;29;20492;-80
2021/07/27 10:19:40;;;;;;;22.70;8.75;;;;;;;34.46;26.05;95317.88;4925436;29;20587;-79
2021/07/27 10:22:11;;;;;;;18.77;8.88;;;;;;;34.48;26.64;95325.59;4940603;29;20484;-81
2021/07/27 10:24:43;;;;;;;34.10;8.30;;;;;;;34.53;26.06;95323.38;4939136;29;20058;-76
2021/07/27 10:27:10;;;;;;;25.55;8.48;;;;;;;34.59;26.38;95313.75;4939814;29;20043;-80
2021/07/27 10:29:35;;;;;;;22.10;9.27;;;;;;;34.36;26.80;95313.19;4925345;29;20122;-80
2021/07/27 10:32:11;;;;;;;20.92;9.05;;;;;;;34.09;27.16;95309.03;4907843;29;20036;-80
2021/07/27 10:34:40;;;;;;;25.10;9.55;;;;;;;34.16;26.74;95309.09;4958208;23;20097;-80
2021/07/27 10:37:07;;;;;;;26.13;9.23;;;;;;;34.08;26.53;95302.09;4979625;28;20038;-81
2021/07/27 10:39:32;;;;;;;25.90;9.27;;;;;;;34.16;27.48;95309.84;4959841;28;20019;-80
2021/07/27 10:42:06;;;;;;;26.65;9.52;;;;;;;34.25;27.08;95312.28;4957719;28;20117;-81
2021/07/27 10:44:35;;;;;;;27.15;9.05;;;;;;;34.32;27.20;95306.91;4977325;28;20105;-80
2021/07/27 10:47:00;;;;;;;18.70;8.70;;;;;;;34.15;27.27;95300.22;4978555;28;20110;-81
2021/07/27 10:49:27;;;;;;;42.90;9.73;;;;;;;34.01;27.48;95292.78;4960080;23;20047;-81
2021/07/27 10:51:54;;;;;;;33.45;9.27;;;;;;;34.00;28.24;95295.81;4958984;29;20027;-80
2021/07/27 10:54:32;;;;;;;18.88;8.77;;;;;;;33.96;27.80;95293.09;4959274;28;20050;-81
2021/07/27 10:57:04;;;;;;;25.98;9.57;;;;;;;33.89;27.39;95295.72;4926762;29;20597;-80
2021/07/27 10:59:31;;;;;;;27.85;9.02;;;;;;;33.96;27.51;95285.00;4959406;29;20055;-80
2021/07/27 11:02:01;;;;;;;19.38;8.40;;;;;;;34.03;26.68;95291.63;4942527;29;20034;-80
2021/07/27 11:04:30;;;;;;;17.67;9.25;;;;;;;34.11;27.09;95288.59;4927963;29;20031;-80
2021/07/27 11:07:15;;;;;;;29.25;9.13;;;;;;;33.88;27.40;95283.38;4959092;29;20027;-80
2021/07/27 11:09:48;;;;;;;24.67;9.20;;;;;;;33.77;27.33;95281.69;4942154;29;20035;-80
2021/07/27 11:12:41;;;;;;;28.33;9.30;;;;;;;33.67;27.77;95289.28;4958659;28;20491;-79
2021/07/27 11:15:21;;;;;;;28.17;9.18;;;;;;;33.56;26.89;95276.81;4958858;29;20035;-80
2021/07/27 11:17:49;;;;;;;26.30;8.95;;;;;;;33.58;26.97;95279.94;4910154;29;20070;-80
2021/07/27 11:20:17;;;;;;;29.15;8.55;;;;;;;33.58;27.13;95280.72;4958280;28;20124;-80
2021/07/27 11:22:46;;;;;;;23.52;9.07;;;;;;;33.57;27.20;95273.00;4957936;29;20035;-80
2021/07/27 11:25:12;;;;;;;29.95;9.27;;;;;;;33.69;26.58;95267.34;4926465;29;20031;-80
2021/07/27 11:27:37;;;;;;;28.70;9.82;;;;;;;33.82;26.55;95274.03;4926642;29;20046;-79
2021/07/27 11:30:04;;;;;;;26.05;8.45;;;;;;;33.91;26.46;95269.16;4964157;28;20031;-79
2021/07/27 11:32:47;;;;;;;25.20;9.13;;;;;;;33.93;26.70;95264.16;4931117;29;20031;-78
2021/07/27 11:35:25;;;;;;;34.08;9.93;;;;;;;33.71;27.25;95271.22;4959280;29;20106;-79
2021/07/27 11:38:04;;;;;;;21.02;8.65;;;;;;;33.42;25.77;95266.66;4958526;29;20090;-80
2021/07/27 11:40:30;;;;;;;45.28;8.93;;;;;;;33.25;25.97;95259.09;4963325;23;20118;-80
2021/07/27 11:43:06;;;;;;;29.67;8.20;;;;;;;33.35;26.79;95259.22;4956782;28;20291;-80
2021/07/27 11:45:39;;;;;;;24.85;8.55;;;;;;;33.55;27.18;95259.09;4955357;29;20038;-80
2021/07/27 11:48:05;;;;;;;27.75;8.05;;;;;;;33.68;26.94;95258.47;4956987;29;20094;-80
2021/07/27 11:50:40;;;;;;;17.60;7.70;;;;;;;33.81;26.68;95258.22;4957184;28;20030;-80